createdAt,value
2019-06-01T00:01:15.881Z,4.10
2019-06-01T00:03:46.479Z,3.30
2019-06-01T00:06:16.095Z,3.47
2019-06-01T00:08:46.830Z,3.67
2019-06-01T00:11:17.573Z,3.83
2019-06-01T00:13:47.742Z,3.27
2019-06-01T00:16:17.382Z,3.37
2019-06-01T00:18:48.333Z,3.93
2019-06-01T00:21:18.131Z,3.47
2019-06-01T00:23:48.721Z,3.87
2019-06-01T00:26:18.457Z,4.10
2019-06-01T00:28:48.060Z,3.23
2019-06-01T00:31:17.744Z,3.53
2019-06-01T00:33:47.621Z,3.80
2019-06-01T00:36:17.224Z,3.67
2019-06-01T00:38:47.832Z,3.60
2019-06-01T00:41:17.483Z,3.60
2019-06-01T00:43:48.431Z,3.40
2019-06-01T00:46:18.372Z,3.57
2019-06-01T00:48:48.374Z,3.60
2019-06-01T00:51:18.240Z,3.67
2019-06-01T00:53:49.405Z,4.17
2019-06-01T00:56:19.278Z,3.30
2019-06-01T00:58:49.821Z,3.73
2019-06-01T01:01:19.485Z,3.67
2019-06-01T01:03:50.106Z,3.57
2019-06-01T01:06:19.787Z,3.60
2019-06-01T01:08:49.322Z,3.53
2019-06-01T01:11:19.152Z,4.20
2019-06-01T01:13:49.227Z,3.47
2019-06-01T01:16:18.853Z,4.57
2019-06-01T01:18:49.666Z,4.40
2019-06-01T01:21:19.437Z,4.67
2019-06-01T01:23:50.251Z,4.00
2019-06-01T01:26:19.832Z,4.00
2019-06-01T01:28:49.402Z,4.57
2019-06-01T01:31:19.035Z,3.93
2019-06-01T01:33:49.352Z,4.27
2019-06-01T01:36:19.047Z,4.43
2019-06-01T01:38:50.355Z,4.50
2019-06-01T01:41:20.129Z,4.20
2019-06-01T01:43:50.392Z,4.10
2019-06-01T01:46:20.087Z,4.53
2019-06-01T01:48:49.920Z,4.10
2019-06-01T01:51:19.575Z,4.20
2019-06-01T01:53:50.470Z,5.43
2019-06-01T01:56:20.193Z,3.93
2019-06-01T01:58:50.287Z,4.73
2019-06-01T02:01:22.855Z,4.00
2019-06-01T02:03:52.201Z,4.53
2019-06-01T02:06:22.713Z,4.77
2019-06-01T02:08:53.500Z,4.33
2019-06-01T02:11:23.295Z,4.07
2019-06-01T02:13:53.613Z,4.60
2019-06-01T02:16:23.333Z,3.93
2019-06-01T02:18:54.349Z,4.77
2019-06-01T02:21:24.476Z,3.97
2019-06-01T02:23:54.866Z,3.97
2019-06-01T02:26:24.628Z,4.57
2019-06-01T02:28:55.295Z,4.37
2019-06-01T02:31:39.707Z,4.53
2019-06-01T02:33:56.988Z,4.53
2019-06-01T02:36:27.577Z,4.53
2019-06-01T02:38:58.597Z,4.23
2019-06-01T02:41:28.461Z,4.47
2019-06-01T02:43:59.122Z,4.53
2019-06-01T02:46:28.797Z,5.00
2019-06-01T02:48:59.787Z,4.30
2019-06-01T02:51:29.622Z,4.40
2019-06-01T02:53:59.649Z,5.10
2019-06-01T02:56:29.235Z,4.70
2019-06-01T02:58:58.786Z,4.77
2019-06-01T03:01:37.166Z,4.43
2019-06-01T03:04:09.938Z,4.67
2019-06-01T03:06:42.479Z,4.33
2019-06-01T03:09:13.040Z,3.97
2019-06-01T03:11:43.346Z,4.60
2019-06-01T03:14:13.747Z,4.77
2019-06-01T03:16:44.330Z,4.30
2019-06-01T03:19:17.235Z,4.07
2019-06-01T03:21:49.451Z,4.77
2019-06-01T03:24:23.610Z,4.23
2019-06-01T03:26:55.065Z,4.87
2019-06-01T03:29:28.088Z,4.67
2019-06-01T03:32:17.791Z,4.30
2019-06-01T03:34:29.010Z,4.00
2019-06-01T03:36:58.710Z,4.07
2019-06-01T03:39:28.755Z,4.03
2019-06-01T03:41:58.494Z,4.20
2019-06-01T03:44:28.035Z,5.20
2019-06-01T03:46:57.779Z,4.83
2019-06-01T03:49:27.329Z,4.43
2019-06-01T03:51:56.899Z,4.43
2019-06-01T03:54:26.466Z,4.23
2019-06-01T03:56:56.058Z,4.37
2019-06-01T03:59:25.606Z,4.40
2019-06-01T04:01:55.267Z,5.20
2019-06-01T04:04:24.803Z,4.57
2019-06-01T04:06:54.830Z,4.37
2019-06-01T04:09:24.418Z,3.90
2019-06-01T04:11:54.029Z,4.30
2019-06-01T04:14:23.714Z,4.67
2019-06-01T04:16:53.294Z,4.47
2019-06-01T04:19:22.981Z,4.27
2019-06-01T04:21:52.528Z,4.83
2019-06-01T04:24:22.244Z,4.10
2019-06-01T04:26:51.782Z,4.03
2019-06-01T04:29:21.351Z,4.73
2019-06-01T04:31:50.944Z,4.97
2019-06-01T04:34:20.516Z,4.17
2019-06-01T04:36:50.123Z,4.20
2019-06-01T04:39:19.688Z,3.83
2019-06-01T04:41:49.261Z,5.03
2019-06-01T04:44:18.863Z,4.27
2019-06-01T04:46:48.409Z,4.57
2019-06-01T04:49:18.000Z,4.27
2019-06-01T04:51:47.567Z,4.53
2019-06-01T04:54:17.148Z,4.17
2019-06-01T04:56:46.677Z,3.90
2019-06-01T04:59:16.211Z,3.83
2019-06-01T05:01:45.804Z,4.17
2019-06-01T05:04:15.575Z,3.50
2019-06-01T05:06:45.397Z,4.43
2019-06-01T05:09:15.707Z,4.00
2019-06-01T05:11:45.628Z,4.00
2019-06-01T05:14:16.569Z,3.53
2019-06-01T05:16:46.380Z,3.80
2019-06-01T05:19:16.678Z,4.37
2019-06-01T05:21:46.476Z,3.67
2019-06-01T05:24:17.164Z,4.50
2019-06-01T05:26:46.856Z,3.57
2019-06-01T05:29:17.794Z,4.23
2019-06-01T05:31:48.012Z,4.43
2019-06-01T05:34:18.434Z,4.10
2019-06-01T05:36:48.137Z,4.33
2019-06-01T05:39:18.807Z,4.00
2019-06-01T05:41:48.438Z,5.17
2019-06-01T05:44:19.293Z,4.37
2019-06-01T05:46:49.102Z,4.37
2019-06-01T05:49:18.734Z,3.97
2019-06-01T05:51:48.337Z,4.27
2019-06-01T05:54:18.875Z,3.17
2019-06-01T05:56:48.643Z,4.47
2019-06-01T05:59:18.400Z,3.67
2019-06-01T06:01:48.029Z,3.97
2019-06-01T06:04:17.675Z,3.80
2019-06-01T06:06:47.298Z,3.77
2019-06-01T06:09:17.124Z,3.97
2019-06-01T06:11:46.804Z,3.30
2019-06-01T06:14:17.573Z,3.07
2019-06-01T06:16:47.380Z,4.00
2019-06-01T06:19:20.260Z,3.23
2019-06-01T06:21:48.476Z,3.27
2019-06-01T06:24:18.585Z,3.20
2019-06-01T06:26:48.276Z,2.60
2019-06-01T06:29:18.931Z,2.87
2019-06-01T06:31:48.602Z,2.87
2019-06-01T06:34:19.609Z,2.53
2019-06-01T06:36:50.256Z,2.70
2019-06-01T06:39:20.105Z,2.30
2019-06-01T06:41:49.787Z,2.50
2019-06-01T06:44:20.525Z,3.00
2019-06-01T06:46:50.196Z,2.20
2019-06-01T06:49:21.286Z,2.80
2019-06-01T06:51:51.052Z,2.50
2019-06-01T06:54:21.787Z,2.33
2019-06-01T06:56:51.458Z,2.30
2019-06-01T06:59:21.018Z,2.23
2019-06-01T07:01:50.797Z,2.37
2019-06-01T07:04:21.383Z,2.07
2019-06-01T07:06:50.989Z,1.87
2019-06-01T07:09:20.553Z,2.33
2019-06-01T07:11:50.099Z,2.13
2019-06-01T07:14:19.885Z,1.90
2019-06-01T07:16:49.430Z,2.10
2019-06-01T07:19:19.966Z,3.13
2019-06-01T07:21:49.489Z,2.27
2019-06-01T07:24:19.570Z,2.13
2019-06-01T07:26:49.156Z,2.10
2019-06-01T07:29:19.945Z,1.62
2019-06-01T07:31:49.765Z,1.67
2019-06-01T07:34:30.705Z,2.00
2019-06-01T07:36:50.822Z,2.07
2019-06-01T07:39:20.648Z,2.20
2019-06-01T07:41:50.304Z,2.50
2019-06-01T07:44:20.857Z,2.27
2019-06-01T07:46:50.675Z,2.23
2019-06-01T07:49:21.064Z,2.33
2019-06-01T07:51:50.796Z,1.87
2019-06-01T07:54:22.266Z,2.30
2019-06-01T07:56:52.645Z,2.20
2019-06-01T07:59:24.107Z,1.73
2019-06-01T08:01:54.659Z,1.85
2019-06-01T08:04:26.298Z,1.98
2019-06-01T08:06:55.589Z,1.80
2019-06-01T08:09:26.558Z,1.50
2019-06-01T08:11:56.403Z,1.73
2019-06-01T08:14:26.530Z,1.80
2019-06-01T08:16:56.197Z,1.87
2019-06-01T08:19:26.019Z,1.70
2019-06-01T08:21:55.687Z,2.10
2019-06-01T08:24:26.202Z,1.95
2019-06-01T08:26:55.957Z,1.73
2019-06-01T08:29:26.654Z,1.60
2019-06-01T08:31:56.924Z,1.80
2019-06-01T08:34:26.932Z,1.40
2019-06-01T08:36:56.495Z,2.00
2019-06-01T08:39:27.400Z,2.00
2019-06-01T08:41:57.045Z,1.90
2019-06-01T08:44:27.715Z,1.70
2019-06-01T08:46:57.898Z,1.90
2019-06-01T08:49:30.563Z,1.90
2019-06-01T08:52:01.809Z,1.90
2019-06-01T08:54:32.283Z,1.47
2019-06-01T08:57:02.070Z,1.57
2019-06-01T08:59:32.562Z,1.90
2019-06-01T09:02:02.176Z,1.75
2019-06-01T09:04:32.803Z,1.77
2019-06-01T09:07:02.672Z,1.67
2019-06-01T09:09:33.233Z,1.90
2019-06-01T09:12:02.757Z,2.07
2019-06-01T09:14:33.465Z,1.70
2019-06-01T09:17:03.407Z,2.42
2019-06-01T09:19:33.660Z,2.10
2019-06-01T09:22:03.217Z,1.80
2019-06-01T09:24:33.965Z,1.70
2019-06-01T09:27:03.669Z,1.90
2019-06-01T09:29:34.082Z,2.37
2019-06-01T09:32:04.419Z,1.95
2019-06-01T09:34:34.511Z,2.00
2019-06-01T09:37:04.062Z,2.00
2019-06-01T09:39:34.791Z,1.60
2019-06-01T09:42:04.726Z,2.27
2019-06-01T09:44:35.236Z,2.03
2019-06-01T09:47:06.125Z,1.73
2019-06-01T09:49:35.834Z,1.82
2019-06-01T09:52:05.744Z,5.62
2019-06-01T09:54:36.386Z,2.15
2019-06-01T09:57:07.294Z,2.17
2019-06-01T09:59:37.932Z,2.30
2019-06-01T10:02:08.042Z,2.10
2019-06-01T10:04:38.825Z,1.60
2019-06-01T10:07:09.158Z,2.05
2019-06-01T10:09:38.714Z,1.73
2019-06-01T10:12:08.298Z,2.17
2019-06-01T10:14:39.253Z,1.75
2019-06-01T10:17:09.048Z,2.20
2019-06-01T10:19:39.189Z,2.15
2019-06-01T10:22:09.742Z,1.98
2019-06-01T10:24:39.403Z,1.80
2019-06-01T10:27:09.035Z,1.92
2019-06-01T10:29:39.902Z,1.85
2019-06-01T10:32:10.353Z,1.65
2019-06-01T10:34:40.464Z,1.87
2019-06-01T10:37:10.018Z,1.98
2019-06-01T10:39:39.579Z,1.40
2019-06-01T10:42:09.175Z,1.67
2019-06-01T10:44:43.842Z,1.50
2019-06-01T10:47:10.603Z,2.17
2019-06-01T10:49:40.208Z,2.47
2019-06-01T10:52:09.755Z,1.50
2019-06-01T10:54:40.241Z,1.70
2019-06-01T10:57:09.951Z,2.17
2019-06-01T10:59:40.556Z,3.33
2019-06-01T11:02:10.352Z,1.77
2019-06-01T11:04:41.127Z,2.17
2019-06-01T11:07:10.739Z,2.08
2019-06-01T11:09:41.193Z,2.17
2019-06-01T11:12:10.742Z,2.17
2019-06-01T11:14:41.287Z,1.90
2019-06-01T11:17:11.003Z,1.93
2019-06-01T11:19:42.071Z,1.80
2019-06-01T11:22:12.561Z,1.60
2019-06-01T11:24:43.920Z,1.52
2019-06-01T11:27:13.753Z,1.90
2019-06-01T11:29:49.917Z,1.82
2019-06-01T11:32:15.789Z,1.60
2019-06-01T11:34:45.378Z,2.08
2019-06-01T11:37:16.029Z,2.05
2019-06-01T11:39:46.237Z,1.92
2019-06-01T11:42:19.614Z,1.65
2019-06-01T11:44:47.652Z,1.50
2019-06-01T11:47:17.647Z,2.05
2019-06-01T11:49:47.262Z,1.92
2019-06-01T11:52:17.386Z,2.12
2019-06-01T11:54:47.505Z,1.62
2019-06-01T11:57:18.376Z,2.07
2019-06-01T11:59:48.491Z,2.10
2019-06-01T12:02:18.669Z,1.60
2019-06-01T12:04:48.912Z,1.62
2019-06-01T12:07:18.676Z,1.70
2019-06-01T12:09:48.361Z,2.08
2019-06-01T12:12:17.919Z,2.12
2019-06-01T12:14:47.464Z,2.03
2019-06-01T12:17:25.733Z,1.80
2019-06-01T12:19:55.906Z,1.65
2019-06-01T12:22:26.029Z,1.77
2019-06-01T12:24:56.150Z,2.30
2019-06-01T12:27:25.682Z,1.80
2019-06-01T12:29:55.252Z,2.17
2019-06-01T12:32:25.368Z,2.50
2019-06-01T12:34:55.525Z,1.52
2019-06-01T12:37:39.815Z,2.67
2019-06-01T12:39:57.499Z,1.87
2019-06-01T12:42:27.689Z,1.80
2019-06-01T12:44:57.278Z,1.90
2019-06-01T12:47:27.400Z,1.90
2019-06-01T12:49:56.959Z,2.17
2019-06-01T12:52:26.606Z,2.50
2019-06-01T12:54:56.152Z,2.08
2019-06-01T12:57:26.280Z,2.17
2019-06-01T12:59:56.433Z,1.98
2019-06-01T13:02:26.582Z,2.08
2019-06-01T13:04:56.727Z,2.62
2019-06-01T13:07:26.851Z,3.00
2019-06-01T13:09:57.175Z,2.90
2019-06-01T13:12:26.822Z,2.10
2019-06-01T13:14:56.952Z,2.45
2019-06-01T13:17:26.581Z,2.67
2019-06-01T13:19:56.195Z,2.43
2019-06-01T13:22:25.743Z,2.47
2019-06-01T13:24:55.288Z,2.65
2019-06-01T13:27:25.597Z,2.58
2019-06-01T13:29:57.765Z,2.12
2019-06-01T13:32:27.312Z,2.12
2019-06-01T13:34:57.452Z,2.10
2019-06-01T13:37:27.019Z,2.23
2019-06-01T13:39:58.354Z,2.20
2019-06-01T13:42:28.797Z,2.47
2019-06-01T13:44:58.396Z,2.05
2019-06-01T13:47:28.526Z,2.20
2019-06-01T13:49:58.090Z,2.10
2019-06-01T13:52:28.191Z,2.35
2019-06-01T13:54:57.731Z,2.60
2019-06-01T13:57:27.984Z,2.30
2019-06-01T13:59:58.306Z,2.25
2019-06-01T14:02:28.163Z,2.35
2019-06-01T14:04:57.827Z,1.87
2019-06-01T14:07:27.970Z,2.50
2019-06-01T14:09:58.111Z,2.05
2019-06-01T14:12:27.729Z,2.02
2019-06-01T14:14:57.294Z,2.00
2019-06-01T14:17:27.457Z,2.10
2019-06-01T14:19:57.589Z,2.30
2019-06-01T14:22:27.795Z,2.58
2019-06-01T14:25:10.468Z,2.27
2019-06-01T14:27:28.670Z,1.87
2019-06-01T14:29:58.798Z,1.90
2019-06-01T14:32:28.725Z,2.02
2019-06-01T14:34:58.853Z,1.92
2019-06-01T14:37:28.981Z,2.25
2019-06-01T14:39:59.204Z,1.85
2019-06-01T14:42:29.367Z,1.62
2019-06-01T14:44:59.602Z,2.15
2019-06-01T14:47:29.149Z,2.95
2019-06-01T14:49:58.860Z,2.33
2019-06-01T14:52:29.351Z,2.10
2019-06-01T14:54:59.479Z,1.80
2019-06-01T14:57:29.624Z,1.85
2019-06-01T14:59:59.300Z,1.72
2019-06-01T15:02:28.876Z,1.98
2019-06-01T15:04:58.668Z,2.05
2019-06-01T15:07:30.469Z,2.10
2019-06-01T15:10:00.011Z,1.57
2019-06-01T15:12:30.473Z,2.00
2019-06-01T15:15:02.399Z,1.77
2019-06-01T15:17:31.904Z,1.62
2019-06-01T15:20:02.705Z,1.62
2019-06-01T15:22:32.519Z,1.57
2019-06-01T15:25:03.610Z,1.65
2019-06-01T15:27:41.330Z,1.72
2019-06-01T15:30:13.360Z,1.45
2019-06-01T15:32:42.953Z,2.67
2019-06-01T15:35:13.764Z,3.12
2019-06-01T15:37:43.299Z,2.55
2019-06-01T15:40:13.421Z,1.92
2019-06-01T15:42:42.982Z,1.85
2019-06-01T15:45:12.981Z,1.80
2019-06-01T15:47:42.560Z,2.30
2019-06-01T15:50:14.805Z,1.47
2019-06-01T15:52:44.363Z,1.55
2019-06-01T15:55:14.521Z,1.82
2019-06-01T15:57:44.081Z,2.00
2019-06-01T16:00:14.929Z,1.40
2019-06-01T16:02:44.484Z,1.12
2019-06-01T16:05:14.689Z,1.72
2019-06-01T16:07:44.240Z,1.87
2019-06-01T16:10:14.619Z,1.20
2019-06-01T16:12:44.340Z,1.92
2019-06-01T16:15:14.647Z,1.85
2019-06-01T16:17:44.214Z,1.80
2019-06-01T16:20:15.417Z,1.47
2019-06-01T16:22:44.962Z,2.00
2019-06-01T16:25:15.349Z,2.50
2019-06-01T16:27:44.953Z,1.92
2019-06-01T16:30:15.728Z,1.60
2019-06-01T16:32:45.308Z,1.80
2019-06-01T16:35:15.196Z,1.50
2019-06-01T16:37:44.782Z,1.90
2019-06-01T16:40:15.992Z,1.62
2019-06-01T16:42:45.546Z,1.75
2019-06-01T16:45:15.883Z,1.70
2019-06-01T16:47:45.440Z,1.40
2019-06-01T16:50:16.250Z,1.67
2019-06-01T16:52:45.951Z,1.62
2019-06-01T16:55:16.314Z,1.80
2019-06-01T16:57:45.881Z,1.87
2019-06-01T17:00:17.917Z,1.20
2019-06-01T17:02:47.489Z,2.10
2019-06-01T17:05:17.342Z,1.50
2019-06-01T17:07:48.298Z,1.70
2019-06-01T17:10:26.268Z,2.20
2019-06-01T17:12:50.640Z,1.35
2019-06-01T17:15:21.063Z,1.70
2019-06-01T17:17:50.699Z,2.55
2019-06-01T17:20:47.558Z,1.65
2019-06-01T17:23:27.997Z,2.00
2019-06-01T17:25:48.439Z,1.82
2019-06-01T17:28:18.240Z,1.67
2019-06-01T17:30:48.096Z,2.00
2019-06-01T17:33:18.275Z,1.80
2019-06-01T17:35:47.949Z,1.77
2019-06-01T17:38:18.504Z,1.80
2019-06-01T17:40:48.048Z,1.72
2019-06-01T17:43:17.594Z,1.80
2019-06-01T17:45:47.153Z,1.65
2019-06-01T17:48:25.929Z,2.17
2019-06-01T17:50:48.866Z,2.12
2019-06-01T17:53:18.397Z,1.77
2019-06-01T17:55:48.093Z,1.87
2019-06-01T17:58:20.285Z,2.17
2019-06-01T18:00:50.672Z,2.55
2019-06-01T18:03:20.489Z,2.52
2019-06-01T18:05:50.302Z,2.05
2019-06-01T18:08:20.454Z,2.02
2019-06-01T18:10:54.373Z,1.70
2019-06-01T18:13:21.501Z,1.85
2019-06-01T18:15:51.670Z,2.05
2019-06-01T18:18:21.779Z,1.50
2019-06-01T18:20:52.090Z,1.52
2019-06-01T18:23:22.220Z,1.60
2019-06-01T18:25:55.085Z,1.82
2019-06-01T18:28:24.856Z,2.05
2019-06-01T18:30:55.599Z,1.95
2019-06-01T18:33:30.375Z,1.90
2019-06-01T18:36:00.484Z,1.75
2019-06-01T18:38:30.113Z,1.90
2019-06-01T18:41:09.471Z,1.60
2019-06-01T18:43:31.491Z,2.50
2019-06-01T18:46:01.667Z,1.72
2019-06-01T18:48:31.854Z,1.72
2019-06-01T18:51:01.592Z,1.60
2019-06-01T18:53:31.740Z,1.60
2019-06-01T18:56:04.022Z,1.82
2019-06-01T18:58:33.943Z,2.15
2019-06-01T19:01:04.579Z,1.77
2019-06-01T19:03:43.664Z,2.20
2019-06-01T19:06:14.191Z,2.98
2019-06-01T19:08:43.740Z,2.40
2019-06-01T19:11:29.379Z,2.47
2019-06-01T19:13:46.226Z,2.27
2019-06-01T19:16:16.393Z,2.40
2019-06-01T19:18:46.008Z,2.27
2019-06-01T19:21:16.850Z,2.40
2019-06-01T19:23:46.505Z,2.40
2019-06-01T19:26:16.831Z,1.98
2019-06-01T19:28:47.307Z,2.67
2019-06-01T19:31:17.502Z,2.90
2019-06-01T19:33:47.858Z,2.95
2019-06-01T19:36:18.242Z,3.47
2019-06-01T19:38:49.019Z,4.40
2019-06-01T19:41:18.570Z,3.98
2019-06-01T19:43:48.691Z,4.22
2019-06-01T19:46:18.254Z,3.75
2019-06-01T19:48:47.836Z,4.03
2019-06-01T19:51:18.830Z,4.20
2019-06-01T19:53:49.136Z,4.58
2019-06-01T19:56:20.477Z,4.60
2019-06-01T19:58:50.305Z,5.67
2019-06-01T20:01:19.889Z,4.60
2019-06-01T20:03:49.468Z,5.23
2019-06-01T20:06:19.585Z,4.72
2019-06-01T20:08:49.167Z,5.10
2019-06-01T20:11:19.341Z,5.00
2019-06-01T20:13:49.096Z,5.57
2019-06-01T20:16:20.265Z,5.83
2019-06-01T20:18:50.060Z,6.30
2019-06-01T20:21:20.693Z,5.37
2019-06-01T20:23:50.304Z,5.33
2019-06-01T20:26:19.844Z,6.50
2019-06-01T20:28:49.711Z,6.47
2019-06-01T20:31:19.903Z,6.33
2019-06-01T20:33:50.092Z,5.92
2019-06-01T20:36:20.181Z,6.00
2019-06-01T20:38:49.932Z,5.85
2019-06-01T20:41:20.636Z,5.80
2019-06-01T20:43:50.312Z,6.70
2019-06-01T20:46:20.894Z,5.27
2019-06-01T20:48:50.678Z,5.33
2019-06-01T20:51:20.968Z,5.30
2019-06-01T20:53:50.642Z,6.13
2019-06-01T20:56:21.385Z,5.50
2019-06-01T20:58:51.190Z,4.90
2019-06-01T21:01:21.944Z,5.27
2019-06-01T21:03:51.686Z,4.83
2019-06-01T21:06:22.467Z,5.80
2019-06-01T21:08:52.063Z,4.90
2019-06-01T21:11:22.362Z,5.37
2019-06-01T21:13:52.059Z,5.60
2019-06-01T21:16:22.352Z,5.10
2019-06-01T21:18:52.106Z,5.17
2019-06-01T21:21:22.522Z,5.43
2019-06-01T21:23:52.213Z,5.67
2019-06-01T21:26:23.007Z,5.97
2019-06-01T21:28:52.694Z,7.03
2019-06-01T21:31:23.222Z,6.10
2019-06-01T21:33:52.887Z,7.37
2019-06-01T21:36:23.555Z,5.93
2019-06-01T21:38:53.194Z,6.03
2019-06-01T21:41:23.706Z,5.67
2019-06-01T21:43:53.510Z,5.73
2019-06-01T21:46:23.771Z,5.23
2019-06-01T21:48:53.415Z,5.40
2019-06-01T21:51:24.031Z,5.47
2019-06-01T21:53:54.947Z,6.13
2019-06-01T21:56:25.320Z,5.13
2019-06-01T21:58:56.058Z,7.83
2019-06-01T22:01:27.005Z,7.50
2019-06-01T22:03:57.003Z,6.33
2019-06-01T22:06:27.710Z,5.30
2019-06-01T22:08:57.379Z,6.53
2019-06-01T22:11:27.545Z,6.20
2019-06-01T22:13:57.264Z,5.67
2019-06-01T22:16:27.893Z,6.03
2019-06-01T22:18:57.450Z,4.30
2019-06-01T22:21:27.940Z,5.33
2019-06-01T22:23:57.667Z,5.67
2019-06-01T22:26:28.333Z,5.80
2019-06-01T22:28:58.070Z,4.60
2019-06-01T22:31:28.687Z,4.40
2019-06-01T22:33:58.280Z,3.97
2019-06-01T22:36:27.827Z,3.90
2019-06-01T22:38:57.614Z,3.30
2019-06-01T22:41:28.078Z,3.30
2019-06-01T22:43:57.941Z,3.63
2019-06-01T22:46:28.640Z,3.37
2019-06-01T22:48:58.399Z,3.53
2019-06-01T22:51:29.365Z,3.40
2019-06-01T22:53:59.372Z,3.27
2019-06-01T22:56:29.421Z,3.53
2019-06-01T22:58:59.192Z,3.47
2019-06-01T23:01:28.906Z,3.20
2019-06-01T23:03:58.512Z,3.20
2019-06-01T23:06:29.246Z,3.30
2019-06-01T23:08:58.919Z,3.67
2019-06-01T23:11:29.586Z,3.17
2019-06-01T23:13:59.148Z,3.37
2019-06-01T23:16:29.743Z,3.47
2019-06-01T23:18:59.630Z,4.00
2019-06-01T23:21:29.963Z,3.73
2019-06-01T23:23:59.617Z,3.23
2019-06-01T23:26:30.287Z,3.80
2019-06-01T23:29:00.019Z,3.93
2019-06-01T23:31:30.466Z,3.43
2019-06-01T23:34:00.124Z,3.50
2019-06-01T23:36:30.683Z,4.20
2019-06-01T23:39:02.930Z,3.60
2019-06-01T23:41:32.957Z,3.60
2019-06-01T23:44:11.776Z,2.90
2019-06-01T23:46:34.085Z,4.20
2019-06-01T23:49:03.737Z,3.50
2019-06-01T23:51:33.969Z,3.77
2019-06-01T23:54:03.647Z,4.17
2019-06-01T23:56:34.722Z,3.67
2019-06-01T23:59:04.572Z,3.67
